createdAt,value
2017-05-05T00:00:26.589Z,13.05
2017-05-05T00:02:54.951Z,14.78
2017-05-05T00:05:24.656Z,14.38
2017-05-05T00:07:53.065Z,14.02
2017-05-05T00:10:21.432Z,13.02
2017-05-05T00:12:50.620Z,14.17
2017-05-05T00:15:19.032Z,14.52
2017-05-05T00:17:47.464Z,13.67
2017-05-05T00:20:15.868Z,15.43
2017-05-05T00:22:44.716Z,14.92
2017-05-05T00:25:13.128Z,14.30
2017-05-05T00:27:41.505Z,15.28
2017-05-05T00:30:09.860Z,15.52
2017-05-05T00:32:39.008Z,14.98
2017-05-05T00:35:07.385Z,13.83
2017-05-05T00:37:36.488Z,14.72
2017-05-05T00:40:04.849Z,15.93
2017-05-05T00:42:33.212Z,14.37
2017-05-05T00:45:01.656Z,13.72
2017-05-05T00:47:35.389Z,13.87
2017-05-05T00:50:03.795Z,14.90
2017-05-05T00:52:32.165Z,14.03
2017-05-05T00:55:00.548Z,13.43
2017-05-05T00:57:28.945Z,13.07
2017-05-05T00:59:57.304Z,13.60
2017-05-05T01:02:26.408Z,14.05
2017-05-05T01:04:54.818Z,13.65
2017-05-05T01:07:23.232Z,13.55
2017-05-05T01:09:52.384Z,13.30
2017-05-05T01:12:20.752Z,13.27
2017-05-05T01:14:49.937Z,12.97
2017-05-05T01:17:18.344Z,12.12
2017-05-05T01:19:46.752Z,11.98
2017-05-05T01:22:15.860Z,12.37
2017-05-05T01:24:44.264Z,10.10
2017-05-05T01:27:12.672Z,10.33
2017-05-05T01:29:41.777Z,10.58
2017-05-05T01:32:10.129Z,9.30
2017-05-05T01:34:38.485Z,10.48
2017-05-05T01:37:06.881Z,9.87
2017-05-05T01:39:35.249Z,10.98
2017-05-05T01:42:03.660Z,10.57
2017-05-05T01:44:32.079Z,10.03
2017-05-05T01:47:00.749Z,9.95
2017-05-05T01:49:29.155Z,10.15
2017-05-05T01:51:57.568Z,11.08
2017-05-05T01:54:25.985Z,11.00
2017-05-05T01:56:55.158Z,11.33
2017-05-05T01:59:23.533Z,11.42
2017-05-05T02:01:52.185Z,12.20
2017-05-05T02:04:20.597Z,11.65
2017-05-05T02:06:49.010Z,12.42
2017-05-05T02:09:17.417Z,13.93
2017-05-05T02:11:46.521Z,12.28
2017-05-05T02:14:14.877Z,13.07
2017-05-05T02:16:43.280Z,13.00
2017-05-05T02:19:11.653Z,12.95
2017-05-05T02:21:41.719Z,11.92
2017-05-05T02:24:10.924Z,13.42
2017-05-05T02:26:39.336Z,12.22
2017-05-05T02:29:07.748Z,11.98
2017-05-05T02:31:36.460Z,12.70
2017-05-05T02:34:04.872Z,14.07
2017-05-05T02:36:33.283Z,12.73
2017-05-05T02:39:01.691Z,12.07
2017-05-05T02:41:30.100Z,11.52
2017-05-05T02:43:58.511Z,12.58
2017-05-05T02:46:27.660Z,11.70
2017-05-05T02:48:56.401Z,12.52
2017-05-05T02:51:24.804Z,11.33
2017-05-05T02:53:54.319Z,10.90
2017-05-05T02:56:22.637Z,11.38
2017-05-05T02:58:50.950Z,11.37
2017-05-05T03:01:20.001Z,10.83
2017-05-05T03:03:48.310Z,11.03
2017-05-05T03:06:16.625Z,11.05
2017-05-05T03:08:44.934Z,11.27
2017-05-05T03:11:13.289Z,11.40
2017-05-05T03:13:41.602Z,11.72
2017-05-05T03:16:09.914Z,11.97
2017-05-05T03:18:38.241Z,10.60
2017-05-05T03:21:07.310Z,11.02
2017-05-05T03:23:35.612Z,10.87
2017-05-05T03:26:05.477Z,11.28
2017-05-05T03:28:33.786Z,11.62
2017-05-05T03:31:02.104Z,11.40
2017-05-05T03:33:31.157Z,12.08
2017-05-05T03:35:59.464Z,12.33
2017-05-05T03:38:27.774Z,12.10
2017-05-05T03:40:56.108Z,13.68
2017-05-05T03:43:25.157Z,13.52
2017-05-05T03:45:53.463Z,13.35
2017-05-05T03:48:21.945Z,12.73
2017-05-05T03:50:50.254Z,13.95
2017-05-05T03:53:18.562Z,15.57
2017-05-05T03:55:46.865Z,16.03
2017-05-05T03:58:15.161Z,14.13
2017-05-05T04:00:43.465Z,16.15
2017-05-05T04:03:11.781Z,15.45
2017-05-05T04:05:40.559Z,14.53
2017-05-05T04:08:08.865Z,14.52
2017-05-05T04:10:37.175Z,16.60
2017-05-05T04:13:05.486Z,15.00
2017-05-05T04:15:38.778Z,17.68
2017-05-05T04:18:07.098Z,15.67
2017-05-05T04:20:35.429Z,16.88
2017-05-05T04:23:04.482Z,15.17
2017-05-05T04:25:32.794Z,16.95
2017-05-05T04:28:01.109Z,15.70
2017-05-05T04:30:29.461Z,17.53
2017-05-05T04:32:57.773Z,17.58
2017-05-05T04:35:26.077Z,14.98
2017-05-05T04:37:54.838Z,16.08
2017-05-05T04:40:23.897Z,13.70
2017-05-05T04:42:52.206Z,16.05
2017-05-05T04:45:20.517Z,16.08
2017-05-05T04:47:49.287Z,15.62
2017-05-05T04:50:17.598Z,14.45
2017-05-05T04:52:45.905Z,16.50
2017-05-05T04:55:14.217Z,16.32
2017-05-05T04:57:42.537Z,14.52
2017-05-05T05:00:10.850Z,13.62
2017-05-05T05:02:39.902Z,16.18
2017-05-05T05:05:09.966Z,13.52
2017-05-05T05:07:38.275Z,14.37
2017-05-05T05:10:06.922Z,16.82
2017-05-05T05:12:35.538Z,14.78
2017-05-05T05:15:03.851Z,14.32
2017-05-05T05:17:32.153Z,13.98
2017-05-05T05:20:00.472Z,13.87
2017-05-05T05:22:28.785Z,15.42
2017-05-05T05:24:57.093Z,14.13
2017-05-05T05:27:25.406Z,13.85
2017-05-05T05:29:54.456Z,12.70
2017-05-05T05:32:22.769Z,13.10
2017-05-05T05:34:51.078Z,13.23
2017-05-05T05:37:19.386Z,12.12
2017-05-05T05:39:47.736Z,14.95
2017-05-05T05:42:16.041Z,13.38
2017-05-05T05:44:44.353Z,12.85
2017-05-05T05:47:12.660Z,13.83
2017-05-05T05:49:41.229Z,13.58
2017-05-05T05:52:09.543Z,12.70
2017-05-05T05:54:37.853Z,12.12
2017-05-05T05:57:06.587Z,11.80
2017-05-05T05:59:34.898Z,11.80
2017-05-05T06:02:03.198Z,11.18
2017-05-05T06:04:31.510Z,11.43
2017-05-05T06:07:00.558Z,12.78
2017-05-05T06:09:28.866Z,14.07
2017-05-05T06:11:57.172Z,13.33
2017-05-05T06:14:25.485Z,11.77
2017-05-05T06:16:53.788Z,10.93
2017-05-05T06:19:22.096Z,11.12
2017-05-05T06:21:50.410Z,12.00
2017-05-05T06:24:19.467Z,11.55
2017-05-05T06:26:47.784Z,14.27
2017-05-05T06:29:16.095Z,12.35
2017-05-05T06:31:44.410Z,11.15
2017-05-05T06:34:12.717Z,11.82
2017-05-05T06:36:41.766Z,11.12
2017-05-05T06:39:10.313Z,10.77
2017-05-05T06:41:38.641Z,12.20
2017-05-05T06:44:07.704Z,10.37
2017-05-05T06:46:36.014Z,10.92
2017-05-05T06:49:04.697Z,10.70
2017-05-05T06:51:33.061Z,11.15
2017-05-05T06:54:02.581Z,10.00
2017-05-05T06:56:31.637Z,10.47
2017-05-05T06:58:59.960Z,11.40
2017-05-05T07:01:28.274Z,10.52
2017-05-05T07:03:56.665Z,10.00
2017-05-05T07:06:24.993Z,10.28
2017-05-05T07:08:54.097Z,11.58
2017-05-05T07:11:22.449Z,9.58
2017-05-05T07:13:50.772Z,11.33
2017-05-05T07:16:19.077Z,9.67
2017-05-05T07:18:47.382Z,9.37
2017-05-05T07:21:15.890Z,10.68
2017-05-05T07:23:44.221Z,9.65
2017-05-05T07:26:12.565Z,9.67
2017-05-05T07:28:41.695Z,9.75
2017-05-05T07:31:11.237Z,10.25
2017-05-05T07:33:40.280Z,9.73
2017-05-05T07:36:08.597Z,10.52
2017-05-05T07:38:36.902Z,9.83
2017-05-05T07:41:05.202Z,9.57
2017-05-05T07:43:33.661Z,9.50
2017-05-05T07:46:02.708Z,9.20
2017-05-05T07:48:31.028Z,8.80
2017-05-05T07:50:59.694Z,8.65
2017-05-05T07:53:28.065Z,8.70
2017-05-05T07:55:57.123Z,8.17
2017-05-05T07:58:25.428Z,9.02
2017-05-05T08:00:53.745Z,8.57
2017-05-05T08:03:22.053Z,7.75
2017-05-05T08:05:55.662Z,7.70
2017-05-05T08:08:23.968Z,6.77
2017-05-05T08:10:52.273Z,6.67
2017-05-05T08:13:20.589Z,6.63
2017-05-05T08:15:49.644Z,7.47
2017-05-05T08:18:17.954Z,6.60
2017-05-05T08:20:46.261Z,7.12
2017-05-05T08:23:14.589Z,6.75
2017-05-05T08:25:42.901Z,8.13
2017-05-05T08:28:12.109Z,7.00
2017-05-05T08:30:40.418Z,7.57
2017-05-05T08:33:09.464Z,7.65
2017-05-05T08:35:37.770Z,7.05
2017-05-05T08:38:06.070Z,6.98
2017-05-05T08:40:34.381Z,6.55
2017-05-05T08:43:02.718Z,6.15
2017-05-05T08:45:31.777Z,7.60
2017-05-05T08:48:00.086Z,7.53
2017-05-05T08:50:28.389Z,6.85
2017-05-05T08:52:56.961Z,6.52
2017-05-05T08:55:25.270Z,6.57
2017-05-05T08:57:54.090Z,5.95
2017-05-05T09:00:22.401Z,5.68
2017-05-05T09:02:50.705Z,5.55
2017-05-05T09:05:19.019Z,5.62
2017-05-05T09:07:47.330Z,5.70
2017-05-05T09:10:15.641Z,5.55
2017-05-05T09:12:44.694Z,5.00
2017-05-05T09:15:13.430Z,5.38
2017-05-05T09:17:41.738Z,6.48
2017-05-05T09:20:10.253Z,6.12
2017-05-05T09:22:38.629Z,5.93
2017-05-05T09:25:06.945Z,5.58
2017-05-05T09:27:35.274Z,5.50
2017-05-05T09:30:03.590Z,5.60
2017-05-05T09:32:31.897Z,4.70
2017-05-05T09:35:00.205Z,4.98
2017-05-05T09:37:28.927Z,5.90
2017-05-05T09:39:57.237Z,5.70
2017-05-05T09:42:25.546Z,4.87
2017-05-05T09:44:53.857Z,4.73
2017-05-05T09:47:22.911Z,5.42
2017-05-05T09:49:51.741Z,5.30
2017-05-05T09:52:20.202Z,4.72
2017-05-05T09:54:48.513Z,5.40
2017-05-05T09:57:16.826Z,5.73
2017-05-05T09:59:45.375Z,4.55
2017-05-05T10:02:13.705Z,5.63
2017-05-05T10:04:42.017Z,4.98
2017-05-05T10:07:10.330Z,5.23
2017-05-05T10:09:38.641Z,4.80
2017-05-05T10:12:06.953Z,11.48
2017-05-05T10:14:35.268Z,27.88
2017-05-05T10:17:04.557Z,4.68
2017-05-05T10:19:32.865Z,4.57
2017-05-05T10:22:01.168Z,3.87
2017-05-05T10:24:29.481Z,3.73
2017-05-05T10:26:58.637Z,3.97
2017-05-05T10:29:26.940Z,3.70
2017-05-05T10:31:55.246Z,3.83
2017-05-05T10:34:23.566Z,3.78
2017-05-05T10:36:51.869Z,3.90
2017-05-05T10:39:20.177Z,3.80
2017-05-05T10:41:48.485Z,2.87
2017-05-05T10:44:16.834Z,3.32
2017-05-05T10:46:45.137Z,3.37
2017-05-05T10:49:13.514Z,3.57
2017-05-05T10:51:42.622Z,3.47
2017-05-05T10:54:10.974Z,3.70
2017-05-05T10:56:39.322Z,2.90
2017-05-05T10:59:07.630Z,3.40
2017-05-05T11:01:35.939Z,3.95
2017-05-05T11:04:04.250Z,3.43
2017-05-05T11:06:32.559Z,3.28
2017-05-05T11:09:00.870Z,3.12
2017-05-05T11:11:29.186Z,3.30
2017-05-05T11:13:57.662Z,2.90
2017-05-05T11:16:25.978Z,3.22
2017-05-05T11:18:54.306Z,2.93
2017-05-05T11:21:23.349Z,2.75
2017-05-05T11:23:51.657Z,2.40
2017-05-05T11:26:19.965Z,2.62
2017-05-05T11:28:48.272Z,2.72
2017-05-05T11:31:16.577Z,2.67
2017-05-05T11:33:44.937Z,2.60
2017-05-05T11:36:13.638Z,2.80
2017-05-05T11:38:42.002Z,2.63
2017-05-05T11:41:11.058Z,2.88
2017-05-05T11:43:39.361Z,3.10
2017-05-05T11:46:07.702Z,2.97
2017-05-05T11:48:36.330Z,3.32
2017-05-05T11:51:05.380Z,2.97
2017-05-05T11:53:34.064Z,2.92
2017-05-05T11:56:02.374Z,2.62
2017-05-05T11:58:30.706Z,3.10
2017-05-05T12:00:59.668Z,2.92
2017-05-05T12:03:27.985Z,2.83
2017-05-05T12:05:56.293Z,2.90
2017-05-05T12:08:24.614Z,5.13
2017-05-05T12:10:52.938Z,2.65
2017-05-05T12:13:21.254Z,3.13
2017-05-05T12:15:50.304Z,3.18
2017-05-05T12:18:18.613Z,2.80
2017-05-05T12:20:46.925Z,3.38
2017-05-05T12:23:15.231Z,2.93
2017-05-05T12:25:43.561Z,3.77
2017-05-05T12:28:13.038Z,2.87
2017-05-05T12:30:41.340Z,2.63
2017-05-05T12:33:09.700Z,3.25
2017-05-05T12:35:38.012Z,2.90
2017-05-05T12:38:06.321Z,3.15
2017-05-05T12:40:34.625Z,3.00
2017-05-05T12:43:02.937Z,3.30
2017-05-05T12:45:31.285Z,3.20
2017-05-05T12:47:59.595Z,3.07
2017-05-05T12:50:27.932Z,2.85
2017-05-05T12:52:56.237Z,3.93
2017-05-05T12:55:25.241Z,3.02
2017-05-05T12:57:53.558Z,3.10
2017-05-05T13:00:21.872Z,3.50
2017-05-05T13:02:50.922Z,3.90
2017-05-05T13:05:19.229Z,3.97
2017-05-05T13:07:47.624Z,4.42
2017-05-05T13:10:15.935Z,6.40
2017-05-05T13:12:44.246Z,6.17
2017-05-05T13:15:12.582Z,7.80
2017-05-05T13:17:41.991Z,6.83
2017-05-05T13:20:10.297Z,6.55
2017-05-05T13:22:39.355Z,4.42
2017-05-05T13:25:07.724Z,7.00
2017-05-05T13:27:36.880Z,6.28
2017-05-05T13:30:05.194Z,6.42
2017-05-05T13:32:33.501Z,7.12
2017-05-05T13:35:01.860Z,6.63
2017-05-05T13:37:30.195Z,6.85
2017-05-05T13:40:01.248Z,7.80
2017-05-05T13:42:29.554Z,8.38
2017-05-05T13:44:57.861Z,9.27
2017-05-05T13:47:26.168Z,9.18
2017-05-05T13:49:54.839Z,9.27
2017-05-05T13:52:23.149Z,9.10
2017-05-05T13:54:51.457Z,10.43
2017-05-05T13:57:20.108Z,9.13
2017-05-05T13:59:48.413Z,9.83
2017-05-05T14:02:16.726Z,8.40
2017-05-05T14:04:45.717Z,8.87
2017-05-05T14:07:14.129Z,9.15
2017-05-05T14:09:42.434Z,8.93
2017-05-05T14:12:10.764Z,9.42
2017-05-05T14:14:39.167Z,10.25
2017-05-05T14:17:07.482Z,11.83
2017-05-05T14:19:36.353Z,11.27
2017-05-05T14:22:04.680Z,11.20
2017-05-05T14:24:33.001Z,11.13
2017-05-05T14:27:02.062Z,11.65
2017-05-05T14:29:30.373Z,10.93
2017-05-05T14:31:59.010Z,10.95
2017-05-05T14:34:27.325Z,10.10
2017-05-05T14:36:55.646Z,11.65
2017-05-05T14:39:23.961Z,11.73
2017-05-05T14:41:53.597Z,11.50
2017-05-05T14:44:21.907Z,10.33
2017-05-05T14:46:50.221Z,10.68
2017-05-05T14:49:18.525Z,9.12
2017-05-05T14:51:46.843Z,10.25
2017-05-05T14:54:15.891Z,9.48
2017-05-05T14:56:44.881Z,14.02
2017-05-05T14:59:13.789Z,15.83
2017-05-05T15:01:42.967Z,12.78
2017-05-05T15:04:11.326Z,12.92
2017-05-05T15:06:39.812Z,13.38
2017-05-05T15:09:08.178Z,12.02
2017-05-05T15:11:36.490Z,12.17
2017-05-05T15:14:05.859Z,10.97
2017-05-05T15:16:34.180Z,10.65
2017-05-05T15:19:02.505Z,11.42
2017-05-05T15:21:30.822Z,11.95
2017-05-05T15:23:59.873Z,11.57
2017-05-05T15:26:28.236Z,12.00
2017-05-05T15:28:57.315Z,10.75
2017-05-05T15:31:25.626Z,11.38
2017-05-05T15:33:53.941Z,10.73
2017-05-05T15:36:22.996Z,12.02
2017-05-05T15:38:51.306Z,10.87
2017-05-05T15:41:19.634Z,11.98
2017-05-05T15:43:47.957Z,12.07
2017-05-05T15:46:17.010Z,11.02
2017-05-05T15:48:45.325Z,11.72
2017-05-05T15:51:13.637Z,11.40
2017-05-05T15:53:42.110Z,11.52
2017-05-05T15:56:10.821Z,11.40
2017-05-05T15:58:39.146Z,11.83
2017-05-05T16:01:07.467Z,12.28
2017-05-05T16:03:36.519Z,11.10
2017-05-05T16:06:04.842Z,11.83
2017-05-05T16:08:33.257Z,11.43
2017-05-05T16:11:01.573Z,11.30
2017-05-05T16:13:30.631Z,12.00
2017-05-05T16:15:58.971Z,10.67
2017-05-05T16:18:27.289Z,11.67
2017-05-05T16:20:56.349Z,11.35
2017-05-05T16:23:24.661Z,10.23
2017-05-05T16:25:52.973Z,10.68
2017-05-05T16:28:21.285Z,11.17
2017-05-05T16:30:49.602Z,11.38
2017-05-05T16:33:18.657Z,17.80
2017-05-05T16:35:47.017Z,15.73
2017-05-05T16:38:16.066Z,13.47
2017-05-05T16:40:44.805Z,12.73
2017-05-05T16:43:13.145Z,13.92
2017-05-05T16:45:42.202Z,12.07
2017-05-05T16:48:10.514Z,13.53
2017-05-05T16:50:38.869Z,12.12
2017-05-05T16:53:07.188Z,12.13
2017-05-05T16:55:35.885Z,13.37
2017-05-05T16:58:04.197Z,13.23
2017-05-05T17:00:32.514Z,12.68
2017-05-05T17:03:01.117Z,13.38
2017-05-05T17:05:29.429Z,14.13
2017-05-05T17:07:57.749Z,13.55
2017-05-05T17:10:26.804Z,12.02
2017-05-05T17:12:55.127Z,10.80
2017-05-05T17:15:23.445Z,13.40
2017-05-05T17:17:52.341Z,11.87
2017-05-05T17:20:20.681Z,16.15
2017-05-05T17:22:49.750Z,11.65
2017-05-05T17:25:18.061Z,11.15
2017-05-05T17:27:46.734Z,11.87
2017-05-05T17:30:15.086Z,10.73
2017-05-05T17:32:44.149Z,46.88
2017-05-05T17:35:12.777Z,11.07
2017-05-05T17:37:41.094Z,12.18
2017-05-05T17:40:09.414Z,10.72
2017-05-05T17:42:38.466Z,12.13
2017-05-05T17:45:08.269Z,10.88
2017-05-05T17:47:37.411Z,11.35
2017-05-05T17:50:05.734Z,13.42
2017-05-05T17:52:34.547Z,11.78
2017-05-05T17:55:02.858Z,11.28
2017-05-05T17:57:31.277Z,12.45
2017-05-05T18:00:00.340Z,10.75
2017-05-05T18:02:28.645Z,12.15
2017-05-05T18:04:56.954Z,10.68
2017-05-05T18:07:25.257Z,11.93
2017-05-05T18:09:53.742Z,11.40
2017-05-05T18:12:22.053Z,10.05
2017-05-05T18:14:50.410Z,11.47
2017-05-05T18:17:18.724Z,10.93
2017-05-05T18:19:48.486Z,10.97
2017-05-05T18:22:16.789Z,9.72
2017-05-05T18:24:45.469Z,10.68
2017-05-05T18:27:13.780Z,11.38
2017-05-05T18:29:42.090Z,10.08
2017-05-05T18:32:10.393Z,9.72
2017-05-05T18:34:38.705Z,10.82
2017-05-05T18:37:07.051Z,9.73
2017-05-05T18:39:35.357Z,10.75
2017-05-05T18:42:03.705Z,11.28
2017-05-05T18:44:32.758Z,9.62
2017-05-05T18:47:01.065Z,10.37
2017-05-05T18:49:29.377Z,9.35
2017-05-05T18:51:57.686Z,10.18
2017-05-05T18:54:26.009Z,11.37
2017-05-05T18:56:54.332Z,10.33
2017-05-05T18:59:23.093Z,13.08
2017-05-05T19:01:51.406Z,11.15
2017-05-05T19:04:19.721Z,12.05
2017-05-05T19:06:48.775Z,11.57
2017-05-05T19:09:17.081Z,11.22
2017-05-05T19:11:45.394Z,10.67
2017-05-05T19:14:13.710Z,12.17
2017-05-05T19:16:42.229Z,11.88
2017-05-05T19:19:11.283Z,10.80
2017-05-05T19:21:39.596Z,11.42
2017-05-05T19:24:07.921Z,11.17
2017-05-05T19:26:36.233Z,11.88
2017-05-05T19:29:04.545Z,10.43
2017-05-05T19:31:33.590Z,10.92
2017-05-05T19:34:01.895Z,11.25
2017-05-05T19:36:30.209Z,11.62
2017-05-05T19:38:58.828Z,12.68
2017-05-05T19:41:27.136Z,12.12
2017-05-05T19:43:55.451Z,11.25
2017-05-05T19:46:24.508Z,12.37
2017-05-05T19:48:52.912Z,11.97
2017-05-05T19:51:21.320Z,12.43
2017-05-05T19:53:49.633Z,11.52
2017-05-05T19:56:17.988Z,11.27
2017-05-05T19:58:50.385Z,11.92
2017-05-05T20:01:18.703Z,12.62
2017-05-05T20:03:47.425Z,10.97
2017-05-05T20:06:15.737Z,11.67
2017-05-05T20:08:44.045Z,11.53
2017-05-05T20:11:12.357Z,11.25
2017-05-05T20:13:41.415Z,13.55
2017-05-05T20:16:09.725Z,12.62
2017-05-05T20:18:38.034Z,12.55
2017-05-05T20:21:06.346Z,12.30
2017-05-05T20:23:34.666Z,13.65
2017-05-05T20:26:03.718Z,12.25
2017-05-05T20:28:32.031Z,11.68
2017-05-05T20:31:01.162Z,12.37
2017-05-05T20:33:29.482Z,12.63
2017-05-05T20:35:57.799Z,11.65
2017-05-05T20:38:26.855Z,11.90
2017-05-05T20:40:55.513Z,11.78
2017-05-05T20:43:24.571Z,12.43
2017-05-05T20:45:52.893Z,12.23
2017-05-05T20:48:21.201Z,12.03
2017-05-05T20:50:49.557Z,11.73
2017-05-05T20:53:17.873Z,11.92
2017-05-05T20:55:46.186Z,11.17
2017-05-05T20:58:14.645Z,11.20
2017-05-05T21:00:44.542Z,10.63
2017-05-05T21:03:12.857Z,11.18
2017-05-05T21:05:41.913Z,11.38
2017-05-05T21:08:10.225Z,11.60
2017-05-05T21:10:38.865Z,10.65
2017-05-05T21:13:07.174Z,11.52
2017-05-05T21:15:36.221Z,10.83
2017-05-05T21:18:04.530Z,10.70
2017-05-05T21:20:33.462Z,11.03
2017-05-05T21:23:01.779Z,10.88
2017-05-05T21:25:30.097Z,11.60
2017-05-05T21:27:59.149Z,11.47
2017-05-05T21:30:27.457Z,12.58
2017-05-05T21:32:56.165Z,12.73
2017-05-05T21:35:24.477Z,11.53
2017-05-05T21:37:52.785Z,12.03
2017-05-05T21:40:22.653Z,11.17
2017-05-05T21:42:51.933Z,13.55
2017-05-05T21:45:20.241Z,12.42
2017-05-05T21:47:48.545Z,12.98
2017-05-05T21:50:16.857Z,11.60
2017-05-05T21:52:45.903Z,12.25
2017-05-05T21:55:14.207Z,12.48
2017-05-05T21:57:42.539Z,12.72
2017-05-05T22:00:10.846Z,13.23
2017-05-05T22:02:39.149Z,10.75
2017-05-05T22:05:07.658Z,12.18
2017-05-05T22:07:36.014Z,10.72
2017-05-05T22:10:04.321Z,11.20
2017-05-05T22:12:32.684Z,10.17
2017-05-05T22:15:00.985Z,10.07
2017-05-05T22:17:29.333Z,10.58
2017-05-05T22:19:57.634Z,10.22
2017-05-05T22:22:25.941Z,10.33
2017-05-05T22:24:54.251Z,10.20
2017-05-05T22:27:23.302Z,10.35
2017-05-05T22:29:51.601Z,9.85
2017-05-05T22:32:20.017Z,9.30
2017-05-05T22:34:48.318Z,10.73
2017-05-05T22:37:16.626Z,9.45
2017-05-05T22:39:44.934Z,10.22
2017-05-05T22:42:13.241Z,9.75
2017-05-05T22:44:42.194Z,10.02
2017-05-05T22:47:10.506Z,10.17
2017-05-05T22:49:38.814Z,10.05
2017-05-05T22:52:07.125Z,10.32
2017-05-05T22:54:35.429Z,9.37
2017-05-05T22:57:03.735Z,9.75
2017-05-05T22:59:32.054Z,8.93
2017-05-05T23:02:00.478Z,9.35
2017-05-05T23:04:29.526Z,10.75
2017-05-05T23:06:57.829Z,10.07
2017-05-05T23:09:26.650Z,10.13
2017-05-05T23:11:54.954Z,9.80
2017-05-05T23:14:23.261Z,9.70
2017-05-05T23:16:51.562Z,9.53
2017-05-05T23:19:19.875Z,9.50
2017-05-05T23:21:48.966Z,9.18
2017-05-05T23:24:17.269Z,8.92
2017-05-05T23:26:45.579Z,8.72
2017-05-05T23:29:13.887Z,9.40
2017-05-05T23:31:42.977Z,9.68
2017-05-05T23:34:11.279Z,8.27
2017-05-05T23:36:39.585Z,8.73
2017-05-05T23:39:08.014Z,8.97
2017-05-05T23:41:37.059Z,8.58
2017-05-05T23:44:05.946Z,8.67
2017-05-05T23:46:34.254Z,8.35
2017-05-05T23:49:02.598Z,8.80
2017-05-05T23:51:30.901Z,9.62
2017-05-05T23:53:59.210Z,8.98
2017-05-05T23:56:27.522Z,9.03
2017-05-05T23:58:56.578Z,9.93
